»·PEaware :: DAL278 KSAN-KSFO

DAL278 :: KSAN-KSFO

FLIGHT INFORMATION

Flight Status: Arrived
Operator:
Delta Air Lines
More flights by this operator :: More flights under this callsign
Pilot: Reece F. (16700)
Aircraft: BOEING 737-800
(B738)
More flights by this aircraft type
Origin: KSAN San Diego Intl-Lindbergh
United States
Destination: KSFO San Francisco Intl
United States
More flights between these airports :: More routes between these airports
Route: +PEBLE6 SXC VTU RZS SERFR SERFR2
File this flight plan on PilotEdge
Remarks:
Altitude:
(Current/Filed)
28,000ft
Speed:
(Current/Filed)
370kts
Departed: 26-Sep-17 03:22 PM
Arrived: 26-Sep-17 04:45 PM
Distance/Time
Traveled:
388nm/1:23
Distance/Time
To Go:
Arrived

Flight Plot

Page will automatically refresh every two minutes.


Map Options




Map Legend


Flown Route
Filed Route
Departure Airport
Arrival Airport
Navaid (VOR, NDB)
Fix

Horizontal Profiles

Position Reports

Time Latitude Longitude Heading Altitude Ground
Speed
26-Sep-17 14:45 32.732769 -117.197022 132 19ft 0kts
26-Sep-17 14:46 32.732769 -117.197022 132 19ft 0kts
26-Sep-17 14:47 32.732769 -117.197022 132 19ft 0kts
26-Sep-17 14:48 32.732769 -117.197022 132 19ft 0kts
26-Sep-17 14:49 32.732769 -117.197022 132 19ft 0kts
26-Sep-17 14:50 32.732769 -117.197022 132 19ft 0kts
26-Sep-17 14:51 32.732769 -117.197022 132 19ft 0kts
26-Sep-17 14:52 32.732769 -117.197022 132 19ft 0kts
26-Sep-17 14:53 32.732769 -117.197022 132 19ft 0kts
26-Sep-17 14:54 32.732769 -117.197022 132 19ft 0kts
26-Sep-17 14:55 32.732769 -117.197022 132 19ft 0kts
26-Sep-17 14:56 32.732769 -117.197022 132 19ft 0kts
26-Sep-17 14:57 32.732769 -117.197022 132 19ft 0kts
26-Sep-17 14:58 32.732769 -117.197022 132 19ft 0kts
26-Sep-17 14:59 32.732769 -117.197022 132 19ft 0kts
26-Sep-17 15:00 32.732769 -117.197022 132 19ft 0kts
26-Sep-17 15:01 32.732769 -117.197022 132 19ft 0kts
26-Sep-17 15:02 32.732769 -117.197022 132 19ft 0kts
26-Sep-17 15:03 32.732769 -117.197022 132 19ft 0kts
26-Sep-17 15:04 32.732820 -117.197082 145 19ft 1kts
26-Sep-17 15:05 32.732960 -117.197190 142 19ft 0kts
26-Sep-17 15:06 32.732990 -117.197214 122 19ft 0kts
26-Sep-17 15:07 32.733005 -117.197246 92 19ft 0kts
26-Sep-17 15:08 32.733006 -117.197280 68 19ft 0kts
26-Sep-17 15:09 32.732998 -117.197306 50 19ft 0kts
26-Sep-17 15:10 32.732970 -117.197338 20 19ft 0kts
26-Sep-17 15:11 32.732895 -117.197357 16 19ft 0kts
26-Sep-17 15:12 32.732895 -117.197357 16 19ft 0kts
26-Sep-17 15:13 32.732895 -117.197357 16 19ft 0kts
26-Sep-17 15:14 32.732895 -117.197357 16 19ft 0kts
26-Sep-17 15:15 32.732895 -117.197357 16 19ft 0kts
26-Sep-17 15:16 32.732895 -117.197357 16 19ft 0kts
26-Sep-17 15:17 32.732938 -117.197342 16 19ft 5kts
26-Sep-17 15:18 32.734011 -117.196637 64 18ft 19kts
26-Sep-17 15:19 32.733700 -117.194482 105 22ft 25kts
26-Sep-17 15:20 32.733204 -117.192390 105 21ft 28kts
26-Sep-17 15:21 32.732484 -117.189538 106 20ft 31kts
26-Sep-17 15:22 32.731717 -117.186320 107 18ft 32kts
26-Sep-17 15:23 32.730883 -117.182896 105 18ft 33kts
26-Sep-17 15:24 32.729652 -117.177740 105 22ft 27kts
26-Sep-17 15:25 32.729543 -117.177133 90 23ft 0kts
26-Sep-17 15:26 32.730892 -117.178743 285 22ft 59kts
26-Sep-17 15:27 32.739357 -117.214985 285 1556ft 221kts
26-Sep-17 15:28 32.773437 -117.270542 308 2612ft 259kts
26-Sep-17 15:29 32.812012 -117.332116 306 4820ft 269kts
26-Sep-17 15:30 32.851219 -117.398137 305 7077ft 275kts
26-Sep-17 15:31 32.896416 -117.451819 329 9182ft 281kts
26-Sep-17 15:32 32.952783 -117.492535 322 11234ft 332kts
26-Sep-17 15:33 33.011635 -117.576145 310 13533ft 413kts
26-Sep-17 15:34 33.079363 -117.678789 310 15835ft 456kts
26-Sep-17 15:35 33.144454 -117.778633 311 17910ft 468kts
26-Sep-17 15:36 33.202706 -117.900242 296 20141ft 486kts
26-Sep-17 15:37 33.241443 -118.015142 296 22072ft 495kts
26-Sep-17 15:38 33.283024 -118.140521 296 23878ft 501kts
26-Sep-17 15:39 33.326748 -118.273014 297 26033ft 509kts
26-Sep-17 15:40 33.374552 -118.407889 307 27864ft 499kts
26-Sep-17 15:41 33.452633 -118.510129 319 27929ft 492kts
26-Sep-17 15:42 33.542053 -118.615466 320 27925ft 492kts
26-Sep-17 15:43 33.632221 -118.721514 319 27917ft 492kts
26-Sep-17 15:44 33.721430 -118.826726 319 27885ft 492kts
26-Sep-17 15:45 33.808796 -118.930023 318 27867ft 497kts
26-Sep-17 15:46 33.896633 -119.034293 317 27867ft 503kts
26-Sep-17 15:47 33.981773 -119.135785 317 27866ft 504kts
26-Sep-17 15:48 34.063698 -119.233626 317 27864ft 504kts
26-Sep-17 15:49 34.144210 -119.330037 317 27875ft 504kts
26-Sep-17 15:50 34.221638 -119.423012 317 27874ft 504kts
26-Sep-17 15:51 34.296556 -119.513227 317 27873ft 504kts
26-Sep-17 15:52 34.359631 -119.589361 317 27872ft 504kts
26-Sep-17 15:53 34.406853 -119.646476 317 27871ft 504kts
26-Sep-17 15:54 34.453887 -119.703473 317 27873ft 504kts
26-Sep-17 15:55 34.525142 -119.786614 323 27862ft 500kts
26-Sep-17 15:56 34.570658 -119.832030 322 27869ft 501kts
26-Sep-17 15:57 34.623962 -119.885242 322 27863ft 496kts
26-Sep-17 15:58 34.690337 -119.951667 322 27863ft 495kts
26-Sep-17 15:59 34.758776 -120.020331 322 27860ft 496kts
26-Sep-17 16:00 34.828240 -120.090193 322 27860ft 496kts
26-Sep-17 16:01 34.901157 -120.163712 322 27863ft 495kts
26-Sep-17 16:02 34.975525 -120.238955 323 27865ft 494kts
26-Sep-17 16:03 35.043577 -120.307887 324 27864ft 494kts
26-Sep-17 16:04 35.117017 -120.382311 324 27870ft 494kts
26-Sep-17 16:05 35.187048 -120.453534 324 27863ft 495kts
26-Sep-17 16:06 35.256682 -120.524548 324 27857ft 495kts
26-Sep-17 16:07 35.318767 -120.588005 324 27856ft 495kts
26-Sep-17 16:08 35.386025 -120.656905 323 27855ft 495kts
26-Sep-17 16:09 35.445214 -120.717666 323 27858ft 496kts
26-Sep-17 16:10 35.505041 -120.779182 323 27861ft 496kts
26-Sep-17 16:11 35.568110 -120.844186 323 27862ft 496kts
26-Sep-17 16:12 35.615855 -120.893633 324 27855ft 505kts
26-Sep-17 16:13 35.667979 -120.947437 324 27851ft 505kts
26-Sep-17 16:14 35.732938 -121.014608 323 27850ft 505kts
26-Sep-17 16:15 35.800500 -121.084763 322 25420ft 504kts
26-Sep-17 16:16 35.871997 -121.159177 322 24724ft 505kts
26-Sep-17 16:17 35.951067 -121.241826 321 26017ft 476kts
26-Sep-17 16:18 36.023120 -121.317297 322 27758ft 440kts
26-Sep-17 16:19 36.098748 -121.387880 329 27851ft 474kts
26-Sep-17 16:20 36.182624 -121.453756 329 27088ft 462kts
26-Sep-17 16:21 36.255041 -121.510449 329 25314ft 428kts
26-Sep-17 16:22 36.324501 -121.564878 330 23500ft 401kts
26-Sep-17 16:23 36.388445 -121.615078 330 21739ft 381kts
26-Sep-17 16:24 36.448110 -121.662015 329 20043ft 367kts
26-Sep-17 16:25 36.514606 -121.714417 329 19872ft 357kts
26-Sep-17 16:26 36.581623 -121.767402 329 18870ft 348kts
26-Sep-17 16:27 36.645995 -121.818369 329 18863ft 353kts
26-Sep-17 16:28 36.705598 -121.865674 329 18861ft 353kts
26-Sep-17 16:29 36.769090 -121.900984 347 17755ft 346kts
26-Sep-17 16:30 36.833170 -121.919621 348 16023ft 342kts
26-Sep-17 16:31 36.886953 -121.934781 348 15013ft 328kts
26-Sep-17 16:32 36.944724 -121.950961 348 14990ft 335kts
26-Sep-17 16:33 37.004974 -121.973870 344 13552ft 326kts
26-Sep-17 16:34 37.068757 -121.998756 345 11585ft 302kts
26-Sep-17 16:35 37.125555 -122.020829 344 10049ft 291kts
26-Sep-17 16:36 37.172779 -122.039391 344 9993ft 269kts
26-Sep-17 16:37 37.223683 -122.059344 344 9990ft 273kts
26-Sep-17 16:38 37.269184 -122.077106 344 8552ft 291kts
26-Sep-17 16:39 37.316482 -122.095665 343 7019ft 287kts
26-Sep-17 16:40 37.366141 -122.115164 342 5296ft 267kts
26-Sep-17 16:41 37.414138 -122.134047 342 4010ft 239kts
26-Sep-17 16:42 37.456085 -122.150654 342 4001ft 239kts
26-Sep-17 16:43 37.503936 -122.169687 343 3459ft 242kts
26-Sep-17 16:44 37.553706 -122.202709 304 1881ft 256kts
26-Sep-17 16:45 37.568300 -122.254211 293 1754ft 215kts
26-Sep-17 16:46 37.592894 -122.313591 299 813ft 193kts
26-Sep-17 16:47 37.602237 -122.335836 298 435ft 180kts
26-Sep-17 16:48 37.611356 -122.357522 298 52ft 176kts
26-Sep-17 16:49 37.618597 -122.374906 292 21ft 32kts
26-Sep-17 16:50 37.619015 -122.377423 266 26ft 0kts
26-Sep-17 16:51 37.618910 -122.378939 269 29ft 22kts
26-Sep-17 16:52 37.619077 -122.382903 264 31ft 6kts
26-Sep-17 16:53 37.619135 -122.383339 299 31ft 2kts
26-Sep-17 16:54 37.619193 -122.383528 291 31ft 0kts
26-Sep-17 16:55 37.619193 -122.383528 291 31ft 0kts
26-Sep-17 16:56 37.619193 -122.383528 291 31ft 0kts

Navigation Log

Ident Type
1. KSAN Airport
2. MELDY Fix
3. PEBLE Fix
4. SXC Navaid
5. VTU Navaid
6. RZS Navaid
7. KSFO Airport